sensor_id;sensor_type;location;lat;lon;timestamp;pressure;altitude;pressure_sealevel;temperature;humidity
64616;BME280;51027;42.162;24.754;2023-04-07T00:00:22;99576.28;;;6.41;50.77
64616;BME280;51027;42.162;24.754;2023-04-07T00:02:48;99572.72;;;6.43;50.55
64616;BME280;51027;42.162;24.754;2023-04-07T00:05:14;99548.31;;;6.07;50.59
64616;BME280;51027;42.162;24.754;2023-04-07T00:07:39;99572.97;;;6.34;50.52
64616;BME280;51027;42.162;24.754;2023-04-07T00:10:06;99582.97;;;6.17;50.66
64616;BME280;51027;42.162;24.754;2023-04-07T00:12:32;99565.56;;;6.16;51.05
64616;BME280;51027;42.162;24.754;2023-04-07T00:14:57;99574.94;;;6.23;51.40
64616;BME280;51027;42.162;24.754;2023-04-07T00:17:23;99572.63;;;6.11;51.29
64616;BME280;51027;42.162;24.754;2023-04-07T00:19:48;99577.59;;;6.21;51.29
64616;BME280;51027;42.162;24.754;2023-04-07T00:22:14;99586.19;;;6.28;51.19
64616;BME280;51027;42.162;24.754;2023-04-07T00:24:40;99562.28;;;6.06;51.04
64616;BME280;51027;42.162;24.754;2023-04-07T00:27:05;99564.09;;;6.02;51.34
64616;BME280;51027;42.162;24.754;2023-04-07T00:29:30;99580.44;;;6.12;51.45
64616;BME280;51027;42.162;24.754;2023-04-07T00:31:56;99579.31;;;6.24;50.94
64616;BME280;51027;42.162;24.754;2023-04-07T00:34:21;99579.66;;;6.09;51.14
64616;BME280;51027;42.162;24.754;2023-04-07T00:36:47;99571.19;;;5.97;51.20
64616;BME280;51027;42.162;24.754;2023-04-07T00:39:17;99579.56;;;6.13;51.10
64616;BME280;51027;42.162;24.754;2023-04-07T00:41:43;99580.47;;;6.11;51.13
64616;BME280;51027;42.162;24.754;2023-04-07T00:44:09;99584.09;;;6.05;51.23
64616;BME280;51027;42.162;24.754;2023-04-07T00:46:34;99591.13;;;6.01;51.50
64616;BME280;51027;42.162;24.754;2023-04-07T00:49:00;99591.09;;;6.04;51.04
64616;BME280;51027;42.162;24.754;2023-04-07T00:51:25;99584.97;;;6.05;51.12
64616;BME280;51027;42.162;24.754;2023-04-07T00:53:51;99566.34;;;5.79;51.06
64616;BME280;51027;42.162;24.754;2023-04-07T00:56:16;99583.34;;;6.00;51.46
64616;BME280;51027;42.162;24.754;2023-04-07T00:58:42;99569.56;;;5.93;51.79
64616;BME280;51027;42.162;24.754;2023-04-07T01:01:11;99589.63;;;5.93;51.86
64616;BME280;51027;42.162;24.754;2023-04-07T01:03:52;99579.28;;;5.85;52.17
64616;BME280;51027;42.162;24.754;2023-04-07T01:06:24;99564.69;;;5.75;51.95
64616;BME280;51027;42.162;24.754;2023-04-07T01:08:57;99566.44;;;5.74;52.40
64616;BME280;51027;42.162;24.754;2023-04-07T01:14:32;99576.03;;;5.74;51.79
64616;BME280;51027;42.162;24.754;2023-04-07T01:17:02;99578.69;;;5.72;52.25
64616;BME280;51027;42.162;24.754;2023-04-07T01:21:59;99553.06;;;5.48;52.46
64616;BME280;51027;42.162;24.754;2023-04-07T01:30:31;99585.41;;;5.41;53.65
64616;BME280;51027;42.162;24.754;2023-04-07T01:32:58;99585.25;;;5.50;53.54
64616;BME280;51027;42.162;24.754;2023-04-07T01:35:26;99579.28;;;5.43;53.18
64616;BME280;51027;42.162;24.754;2023-04-07T01:37:53;99593.47;;;5.32;53.50
64616;BME280;51027;42.162;24.754;2023-04-07T01:40:19;99583.16;;;5.24;53.56
64616;BME280;51027;42.162;24.754;2023-04-07T01:42:46;99587.31;;;5.34;53.60
64616;BME280;51027;42.162;24.754;2023-04-07T01:45:14;99571.91;;;5.22;53.65
64616;BME280;51027;42.162;24.754;2023-04-07T01:47:40;99567.56;;;5.19;53.36
64616;BME280;51027;42.162;24.754;2023-04-07T01:50:06;99593.50;;;5.29;53.60
64616;BME280;51027;42.162;24.754;2023-04-07T01:52:34;99573.66;;;5.20;53.86
64616;BME280;51027;42.162;24.754;2023-04-07T01:55:01;99545.91;;;5.16;53.77
64616;BME280;51027;42.162;24.754;2023-04-07T01:57:26;99587.00;;;5.49;53.79
64616;BME280;51027;42.162;24.754;2023-04-07T01:59:52;99583.59;;;5.46;53.84
64616;BME280;51027;42.162;24.754;2023-04-07T02:02:18;99591.44;;;5.46;54.00
64616;BME280;51027;42.162;24.754;2023-04-07T02:04:57;99562.09;;;5.33;53.65
64616;BME280;51027;42.162;24.754;2023-04-07T02:07:52;99589.72;;;5.45;53.58
64616;BME280;51027;42.162;24.754;2023-04-07T02:10:22;99580.41;;;5.30;53.74
64616;BME280;51027;42.162;24.754;2023-04-07T02:12:48;99566.81;;;5.14;54.01
64616;BME280;51027;42.162;24.754;2023-04-07T02:15:14;99572.66;;;5.27;54.18
64616;BME280;51027;42.162;24.754;2023-04-07T02:17:42;99593.53;;;5.27;54.05
64616;BME280;51027;42.162;24.754;2023-04-07T02:20:10;99595.22;;;5.30;53.98
64616;BME280;51027;42.162;24.754;2023-04-07T02:22:37;99588.28;;;5.29;53.53
64616;BME280;51027;42.162;24.754;2023-04-07T02:25:26;99588.22;;;5.33;53.52
64616;BME280;51027;42.162;24.754;2023-04-07T02:27:52;99566.09;;;5.06;53.42
64616;BME280;51027;42.162;24.754;2023-04-07T02:30:19;99593.53;;;5.27;53.21
64616;BME280;51027;42.162;24.754;2023-04-07T02:32:45;99595.19;;;5.31;52.99
64616;BME280;51027;42.162;24.754;2023-04-07T02:35:11;99597.06;;;5.25;53.06
64616;BME280;51027;42.162;24.754;2023-04-07T02:37:37;99599.66;;;5.26;52.95
64616;BME280;51027;42.162;24.754;2023-04-07T02:40:03;99598.75;;;5.27;52.97
64616;BME280;51027;42.162;24.754;2023-04-07T02:42:29;99581.47;;;5.22;52.75
64616;BME280;51027;42.162;24.754;2023-04-07T02:44:55;99593.59;;;5.24;53.47
64616;BME280;51027;42.162;24.754;2023-04-07T02:47:20;99582.47;;;5.14;53.03
64616;BME280;51027;42.162;24.754;2023-04-07T02:49:46;99599.66;;;5.26;53.08
64616;BME280;51027;42.162;24.754;2023-04-07T02:52:11;99578.19;;;5.10;52.88
64616;BME280;51027;42.162;24.754;2023-04-07T02:54:37;99599.03;;;5.13;53.05
64616;BME280;51027;42.162;24.754;2023-04-07T02:57:02;99594.72;;;5.09;53.02
64616;BME280;51027;42.162;24.754;2023-04-07T02:59:27;99600.66;;;5.19;53.04
64616;BME280;51027;42.162;24.754;2023-04-07T03:01:53;99594.47;;;5.25;52.74
64616;BME280;51027;42.162;24.754;2023-04-07T03:04:18;99610.19;;;5.20;52.69
64616;BME280;51027;42.162;24.754;2023-04-07T03:06:44;99600.50;;;5.27;52.87
64616;BME280;51027;42.162;24.754;2023-04-07T03:09:09;99593.69;;;5.21;52.78
64616;BME280;51027;42.162;24.754;2023-04-07T03:11:35;99602.34;;;5.23;52.35
64616;BME280;51027;42.162;24.754;2023-04-07T03:14:00;99597.16;;;5.20;52.02
64616;BME280;51027;42.162;24.754;2023-04-07T03:16:26;99596.28;;;5.19;52.18
64616;BME280;51027;42.162;24.754;2023-04-07T03:18:51;99613.28;;;5.42;52.38
64616;BME280;51027;42.162;24.754;2023-04-07T03:21:16;99612.47;;;5.38;52.74
64616;BME280;51027;42.162;24.754;2023-04-07T03:23:42;99614.00;;;5.48;52.93
64616;BME280;51027;42.162;24.754;2023-04-07T03:26:07;99614.00;;;5.48;53.17
64616;BME280;51027;42.162;24.754;2023-04-07T03:28:33;99608.91;;;5.41;52.55
64616;BME280;51027;42.162;24.754;2023-04-07T03:30:58;99615.97;;;5.37;52.66
64616;BME280;51027;42.162;24.754;2023-04-07T03:33:24;99610.72;;;5.39;52.27
64616;BME280;51027;42.162;24.754;2023-04-07T03:35:49;99611.53;;;5.41;52.23
64616;BME280;51027;42.162;24.754;2023-04-07T03:38:15;99614.81;;;5.50;52.39
64616;BME280;51027;42.162;24.754;2023-04-07T03:40:40;99623.63;;;5.46;51.74
64616;BME280;51027;42.162;24.754;2023-04-07T03:43:05;99617.44;;;5.52;51.89
64616;BME280;51027;42.162;24.754;2023-04-07T03:45:36;99621.16;;;5.39;51.64
64616;BME280;51027;42.162;24.754;2023-04-07T03:48:02;99618.50;;;5.42;51.13
64616;BME280;51027;42.162;24.754;2023-04-07T03:50:27;99627.03;;;5.50;50.94
64616;BME280;51027;42.162;24.754;2023-04-07T03:52:53;99625.25;;;5.54;51.40
64616;BME280;51027;42.162;24.754;2023-04-07T03:55:18;99619.38;;;5.42;51.59
64616;BME280;51027;42.162;24.754;2023-04-07T03:57:44;99627.84;;;5.54;52.07
64616;BME280;51027;42.162;24.754;2023-04-07T04:00:10;99634.66;;;5.61;51.71
64616;BME280;51027;42.162;24.754;2023-04-07T04:02:35;99611.06;;;5.20;52.10
64616;BME280;51027;42.162;24.754;2023-04-07T04:05:01;99617.81;;;5.32;52.48
64616;BME280;51027;42.162;24.754;2023-04-07T04:07:26;99633.03;;;5.55;52.47
64616;BME280;51027;42.162;24.754;2023-04-07T04:09:51;99633.03;;;5.55;52.19
64616;BME280;51027;42.162;24.754;2023-04-07T04:12:17;99642.50;;;5.61;52.46
64616;BME280;51027;42.162;24.754;2023-04-07T04:14:42;99629.59;;;5.53;52.47
64616;BME280;51027;42.162;24.754;2023-04-07T04:17:07;99639.03;;;5.60;52.09
64616;BME280;51027;42.162;24.754;2023-04-07T04:19:33;99641.94;;;5.45;52.20
64616;BME280;51027;42.162;24.754;2023-04-07T04:21:58;99643.34;;;5.63;51.93
64616;BME280;51027;42.162;24.754;2023-04-07T04:24:24;99648.50;;;5.66;51.64
64616;BME280;51027;42.162;24.754;2023-04-07T04:26:49;99650.78;;;5.83;51.23
64616;BME280;51027;42.162;24.754;2023-04-07T04:29:14;99652.69;;;5.74;51.17
64616;BME280;51027;42.162;24.754;2023-04-07T04:31:40;99660.47;;;5.76;51.12
64616;BME280;51027;42.162;24.754;2023-04-07T04:34:05;99663.88;;;5.79;51.44
64616;BME280;51027;42.162;24.754;2023-04-07T04:36:31;99635.69;;;5.97;51.06
64616;BME280;51027;42.162;24.754;2023-04-07T04:38:56;99666.13;;;5.99;51.03
64616;BME280;51027;42.162;24.754;2023-04-07T04:41:22;99641.19;;;5.83;51.27
64616;BME280;51027;42.162;24.754;2023-04-07T04:43:47;99645.13;;;6.02;51.20
64616;BME280;51027;42.162;24.754;2023-04-07T04:46:12;99669.56;;;6.03;51.72
64616;BME280;51027;42.162;24.754;2023-04-07T04:48:38;99670.31;;;6.08;51.42
64616;BME280;51027;42.162;24.754;2023-04-07T04:51:03;99668.69;;;6.01;51.80
64616;BME280;51027;42.162;24.754;2023-04-07T04:53:29;99670.84;;;6.24;51.15
64616;BME280;51027;42.162;24.754;2023-04-07T04:55:54;99655.03;;;5.87;52.12
64616;BME280;51027;42.162;24.754;2023-04-07T04:58:20;99666.84;;;6.07;51.30
64616;BME280;51027;42.162;24.754;2023-04-07T05:00:46;99676.22;;;6.16;50.99
64616;BME280;51027;42.162;24.754;2023-04-07T05:03:11;99672.31;;;5.95;50.88
64616;BME280;51027;42.162;24.754;2023-04-07T05:05:37;99679.31;;;6.35;50.36
64616;BME280;51027;42.162;24.754;2023-04-07T05:08:03;99681.38;;;6.19;50.64
64616;BME280;51027;42.162;24.754;2023-04-07T05:10:28;99679.88;;;6.48;50.14
64616;BME280;51027;42.162;24.754;2023-04-07T05:12:55;99683.31;;;6.50;49.90
64616;BME280;51027;42.162;24.754;2023-04-07T05:15:20;99688.72;;;6.42;50.04
64616;BME280;51027;42.162;24.754;2023-04-07T05:17:46;99691.78;;;6.61;49.58
64616;BME280;51027;42.162;24.754;2023-04-07T05:20:15;99688.59;;;6.85;49.46
64616;BME280;51027;42.162;24.754;2023-04-07T05:22:41;99691.97;;;7.26;49.07
64616;BME280;51027;42.162;24.754;2023-04-07T05:25:06;99697.34;;;6.84;48.98
64616;BME280;51027;42.162;24.754;2023-04-07T05:27:32;99694.03;;;7.12;48.97
64616;BME280;51027;42.162;24.754;2023-04-07T05:29:57;99688.13;;;7.04;48.57
64616;BME280;51027;42.162;24.754;2023-04-07T05:32:24;99683.88;;;7.34;48.31
64616;BME280;51027;42.162;24.754;2023-04-07T05:34:50;99699.03;;;7.55;47.77
64616;BME280;51027;42.162;24.754;2023-04-07T05:37:16;99702.81;;;7.76;47.30
64616;BME280;51027;42.162;24.754;2023-04-07T05:39:41;99696.56;;;7.82;47.31
64616;BME280;51027;42.162;24.754;2023-04-07T05:42:08;99698.13;;;7.89;47.19
64616;BME280;51027;42.162;24.754;2023-04-07T05:44:33;99658.91;;;7.84;47.42
64616;BME280;51027;42.162;24.754;2023-04-07T05:46:58;99683.78;;;8.00;47.86
64616;BME280;51027;42.162;24.754;2023-04-07T05:49:24;99699.22;;;8.11;47.96
64616;BME280;51027;42.162;24.754;2023-04-07T05:51:49;99706.78;;;8.22;48.34
64616;BME280;51027;42.162;24.754;2023-04-07T05:54:15;99702.97;;;8.32;47.52
64616;BME280;51027;42.162;24.754;2023-04-07T05:56:40;99695.66;;;8.43;46.10
64616;BME280;51027;42.162;24.754;2023-04-07T05:59:06;99711.38;;;8.45;44.51
64616;BME280;51027;42.162;24.754;2023-04-07T06:01:31;99706.25;;;8.68;43.67
64616;BME280;51027;42.162;24.754;2023-04-07T06:03:56;99705.59;;;8.32;43.86
64616;BME280;51027;42.162;24.754;2023-04-07T06:06:23;99693.34;;;8.32;43.92
64616;BME280;51027;42.162;24.754;2023-04-07T06:08:48;99705.94;;;8.79;43.29
64616;BME280;51027;42.162;24.754;2023-04-07T06:11:13;99704.25;;;8.17;42.93
64616;BME280;51027;42.162;24.754;2023-04-07T06:13:39;99710.56;;;8.43;43.16
64616;BME280;51027;42.162;24.754;2023-04-07T06:16:05;99690.97;;;8.23;42.27
64616;BME280;51027;42.162;24.754;2023-04-07T06:18:30;99706.47;;;8.88;41.36
64616;BME280;51027;42.162;24.754;2023-04-07T06:20:56;99713.63;;;9.11;40.54
64616;BME280;51027;42.162;24.754;2023-04-07T06:23:21;99712.88;;;9.08;40.25
64616;BME280;51027;42.162;24.754;2023-04-07T06:25:47;99684.56;;;8.33;40.91
64616;BME280;51027;42.162;24.754;2023-04-07T06:28:16;99718.94;;;9.10;40.55
64616;BME280;51027;42.162;24.754;2023-04-07T06:30:42;99706.16;;;9.26;40.80
64616;BME280;51027;42.162;24.754;2023-04-07T06:33:07;99726.88;;;9.60;40.79
64616;BME280;51027;42.162;24.754;2023-04-07T06:35:33;99719.44;;;9.72;40.02
64616;BME280;51027;42.162;24.754;2023-04-07T06:37:58;99726.84;;;9.08;40.84
64616;BME280;51027;42.162;24.754;2023-04-07T06:40:23;99725.66;;;9.70;40.31
64616;BME280;51027;42.162;24.754;2023-04-07T06:42:49;99724.16;;;9.63;40.26
64616;BME280;51027;42.162;24.754;2023-04-07T06:45:15;99729.28;;;10.16;39.24
64616;BME280;51027;42.162;24.754;2023-04-07T06:47:41;99704.16;;;10.30;39.17
64616;BME280;51027;42.162;24.754;2023-04-07T06:50:06;99710.84;;;10.16;38.69
64616;BME280;51027;42.162;24.754;2023-04-07T06:52:32;99730.59;;;10.51;38.42
64616;BME280;51027;42.162;24.754;2023-04-07T06:54:57;99730.91;;;10.43;38.18
64616;BME280;51027;42.162;24.754;2023-04-07T06:57:23;99709.28;;;10.35;38.06
64616;BME280;51027;42.162;24.754;2023-04-07T06:59:49;99678.44;;;9.90;37.94
64616;BME280;51027;42.162;24.754;2023-04-07T07:02:14;99711.25;;;9.80;38.05
64616;BME280;51027;42.162;24.754;2023-04-07T07:04:40;99733.31;;;10.01;38.09
64616;BME280;51027;42.162;24.754;2023-04-07T07:07:05;99731.50;;;10.03;37.90
64616;BME280;51027;42.162;24.754;2023-04-07T07:09:31;99714.13;;;10.46;37.65
64616;BME280;51027;42.162;24.754;2023-04-07T07:11:56;99724.41;;;10.52;38.11
64616;BME280;51027;42.162;24.754;2023-04-07T07:14:21;99729.84;;;11.14;37.63
64616;BME280;51027;42.162;24.754;2023-04-07T07:16:47;99725.00;;;10.36;37.73
64616;BME280;51027;42.162;24.754;2023-04-07T07:19:13;99737.34;;;10.58;37.21
64616;BME280;51027;42.162;24.754;2023-04-07T07:21:39;99730.81;;;10.90;36.83
64616;BME280;51027;42.162;24.754;2023-04-07T07:24:04;99731.72;;;10.67;37.27
64616;BME280;51027;42.162;24.754;2023-04-07T07:26:30;99732.84;;;10.38;37.59
64616;BME280;51027;42.162;24.754;2023-04-07T07:28:55;99737.81;;;11.55;37.09
64616;BME280;51027;42.162;24.754;2023-04-07T07:31:21;99740.31;;;11.78;36.87
64616;BME280;51027;42.162;24.754;2023-04-07T07:33:46;99739.84;;;11.48;36.62
64616;BME280;51027;42.162;24.754;2023-04-07T07:36:13;99734.06;;;11.81;36.06
64616;BME280;51027;42.162;24.754;2023-04-07T07:38:39;99727.19;;;11.57;36.06
64616;BME280;51027;42.162;24.754;2023-04-07T07:41:05;99738.84;;;11.09;36.79
64616;BME280;51027;42.162;24.754;2023-04-07T07:43:31;99726.53;;;11.72;35.87
64616;BME280;51027;42.162;24.754;2023-04-07T07:45:56;99734.75;;;11.86;36.09
64616;BME280;51027;42.162;24.754;2023-04-07T07:48:22;99731.88;;;11.70;36.83
64616;BME280;51027;42.162;24.754;2023-04-07T07:50:47;99712.56;;;12.29;35.75
64616;BME280;51027;42.162;24.754;2023-04-07T07:53:13;99683.78;;;11.64;36.20
64616;BME280;51027;42.162;24.754;2023-04-07T07:55:39;99731.06;;;11.48;36.34
64616;BME280;51027;42.162;24.754;2023-04-07T07:58:04;99730.53;;;11.40;36.63
64616;BME280;51027;42.162;24.754;2023-04-07T08:00:30;99729.41;;;11.88;35.95
64616;BME280;51027;42.162;24.754;2023-04-07T08:02:55;99715.41;;;11.86;35.86
64616;BME280;51027;42.162;24.754;2023-04-07T08:05:21;99717.53;;;12.54;35.40
64616;BME280;51027;42.162;24.754;2023-04-07T08:07:46;99724.25;;;12.80;35.49
64616;BME280;51027;42.162;24.754;2023-04-07T08:10:13;99722.41;;;12.63;34.89
64616;BME280;51027;42.162;24.754;2023-04-07T08:12:39;99718.53;;;11.94;35.65
64616;BME280;51027;42.162;24.754;2023-04-07T08:15:05;99724.75;;;12.51;35.34
64616;BME280;51027;42.162;24.754;2023-04-07T08:17:34;99715.47;;;12.42;35.31
64616;BME280;51027;42.162;24.754;2023-04-07T08:20:00;99722.09;;;13.24;34.41
64616;BME280;51027;42.162;24.754;2023-04-07T08:22:25;99719.72;;;13.54;34.20
64616;BME280;51027;42.162;24.754;2023-04-07T08:24:51;99717.22;;;13.51;33.41
64616;BME280;51027;42.162;24.754;2023-04-07T08:27:16;99715.03;;;12.70;33.93
64616;BME280;51027;42.162;24.754;2023-04-07T08:29:41;99640.56;;;12.62;34.10
64616;BME280;51027;42.162;24.754;2023-04-07T08:32:07;99713.56;;;13.37;33.45
64616;BME280;51027;42.162;24.754;2023-04-07T08:34:32;99696.56;;;13.75;32.89
64616;BME280;51027;42.162;24.754;2023-04-07T08:36:58;99701.56;;;13.64;33.78
64616;BME280;51027;42.162;24.754;2023-04-07T08:39:23;99708.19;;;13.73;33.17
64616;BME280;51027;42.162;24.754;2023-04-07T08:41:50;99700.41;;;13.70;32.85
64616;BME280;51027;42.162;24.754;2023-04-07T08:44:15;99692.72;;;13.98;32.78
64616;BME280;51027;42.162;24.754;2023-04-07T08:46:42;99683.03;;;14.15;32.86
64616;BME280;51027;42.162;24.754;2023-04-07T08:49:10;99697.00;;;14.01;32.97
64616;BME280;51027;42.162;24.754;2023-04-07T08:51:43;99693.06;;;13.75;33.10
64616;BME280;51027;42.162;24.754;2023-04-07T08:54:12;99693.00;;;13.76;33.14
64616;BME280;51027;42.162;24.754;2023-04-07T08:56:39;99691.91;;;14.13;32.59
64616;BME280;51027;42.162;24.754;2023-04-07T08:59:07;99691.81;;;14.48;31.81
64616;BME280;51027;42.162;24.754;2023-04-07T09:01:33;99687.38;;;14.16;32.56
64616;BME280;51027;42.162;24.754;2023-04-07T09:04:01;99684.03;;;14.77;31.69
64616;BME280;51027;42.162;24.754;2023-04-07T09:06:29;99678.06;;;14.73;31.93
64616;BME280;51027;42.162;24.754;2023-04-07T09:08:57;99690.31;;;14.43;31.55
64616;BME280;51027;42.162;24.754;2023-04-07T09:11:22;99684.19;;;14.42;31.65
64616;BME280;51027;42.162;24.754;2023-04-07T09:13:49;99679.19;;;14.36;32.28
64616;BME280;51027;42.162;24.754;2023-04-07T09:16:15;99680.69;;;15.65;32.25
64616;BME280;51027;42.162;24.754;2023-04-07T09:18:41;99685.88;;;15.36;31.10
64616;BME280;51027;42.162;24.754;2023-04-07T09:21:08;99665.50;;;14.28;31.90
64616;BME280;51027;42.162;24.754;2023-04-07T09:23:36;99679.41;;;14.49;32.23
64616;BME280;51027;42.162;24.754;2023-04-07T09:28:46;99678.16;;;13.57;32.48
64616;BME280;51027;42.162;24.754;2023-04-07T09:31:12;99683.69;;;12.62;34.37
64616;BME280;51027;42.162;24.754;2023-04-07T09:33:37;99670.44;;;14.02;33.08
64616;BME280;51027;42.162;24.754;2023-04-07T09:36:04;99664.63;;;14.76;32.54
64616;BME280;51027;42.162;24.754;2023-04-07T09:38:39;99660.31;;;15.19;31.72
64616;BME280;51027;42.162;24.754;2023-04-07T09:41:05;99668.44;;;14.39;32.74
64616;BME280;51027;42.162;24.754;2023-04-07T09:43:36;99667.50;;;15.03;32.19
64616;BME280;51027;42.162;24.754;2023-04-07T09:46:19;99663.00;;;14.74;32.77
64616;BME280;51027;42.162;24.754;2023-04-07T09:48:45;99648.91;;;15.63;31.68
64616;BME280;51027;42.162;24.754;2023-04-07T09:51:12;99664.47;;;15.39;31.53
64616;BME280;51027;42.162;24.754;2023-04-07T09:53:51;99661.03;;;15.81;31.55
64616;BME280;51027;42.162;24.754;2023-04-07T09:56:19;99668.34;;;14.88;31.53
64616;BME280;51027;42.162;24.754;2023-04-07T09:58:47;99652.44;;;14.88;31.81
64616;BME280;51027;42.162;24.754;2023-04-07T10:01:14;99666.56;;;15.48;31.65
64616;BME280;51027;42.162;24.754;2023-04-07T10:03:42;99655.31;;;15.59;31.06
64616;BME280;51027;42.162;24.754;2023-04-07T10:06:08;99665.16;;;15.43;30.72
64616;BME280;51027;42.162;24.754;2023-04-07T10:08:37;99644.94;;;15.10;30.65
64616;BME280;51027;42.162;24.754;2023-04-07T10:11:04;99662.38;;;14.84;31.45
64616;BME280;51027;42.162;24.754;2023-04-07T10:13:30;99628.78;;;14.69;31.70
64616;BME280;51027;42.162;24.754;2023-04-07T10:15:57;99652.78;;;15.27;31.33
64616;BME280;51027;42.162;24.754;2023-04-07T10:18:28;99659.31;;;14.60;32.30
64616;BME280;51027;42.162;24.754;2023-04-07T10:20:55;99653.44;;;15.61;31.29
64616;BME280;51027;42.162;24.754;2023-04-07T10:23:25;99654.72;;;15.84;30.59
64616;BME280;51027;42.162;24.754;2023-04-07T10:25:53;99652.81;;;16.15;31.02
64616;BME280;51027;42.162;24.754;2023-04-07T10:28:22;99650.41;;;16.24;31.03
64616;BME280;51027;42.162;24.754;2023-04-07T10:30:50;99658.03;;;16.16;30.80
64616;BME280;51027;42.162;24.754;2023-04-07T10:33:16;99648.00;;;16.48;30.59
64616;BME280;51027;42.162;24.754;2023-04-07T10:36:02;99662.03;;;15.95;30.59
64616;BME280;51027;42.162;24.754;2023-04-07T10:38:29;99655.16;;;15.62;31.50
64616;BME280;51027;42.162;24.754;2023-04-07T10:40:54;99653.31;;;15.48;31.27
64616;BME280;51027;42.162;24.754;2023-04-07T10:43:36;99649.66;;;15.65;31.25
64616;BME280;51027;42.162;24.754;2023-04-07T10:46:03;99646.72;;;16.12;31.09
64616;BME280;51027;42.162;24.754;2023-04-07T10:48:29;99652.06;;;15.98;31.34
64616;BME280;51027;42.162;24.754;2023-04-07T10:53:28;99643.31;;;15.82;31.26
64616;BME280;51027;42.162;24.754;2023-04-07T10:55:54;99628.44;;;15.65;31.00
64616;BME280;51027;42.162;24.754;2023-04-07T10:58:27;99646.25;;;16.20;30.78
64616;BME280;51027;42.162;24.754;2023-04-07T11:03:40;99642.19;;;16.00;30.90
64616;BME280;51027;42.162;24.754;2023-04-07T11:06:13;99634.50;;;15.96;30.98
64616;BME280;51027;42.162;24.754;2023-04-07T11:08:40;99640.25;;;16.31;30.64
64616;BME280;51027;42.162;24.754;2023-04-07T11:11:07;99641.56;;;16.24;30.65
64616;BME280;51027;42.162;24.754;2023-04-07T11:16:12;99633.47;;;15.84;31.21
64616;BME280;51027;42.162;24.754;2023-04-07T11:18:38;99647.13;;;15.64;31.19
64616;BME280;51027;42.162;24.754;2023-04-07T11:21:04;99604.13;;;15.71;30.62
64616;BME280;51027;42.162;24.754;2023-04-07T11:23:38;99637.63;;;16.02;30.90
64616;BME280;51027;42.162;24.754;2023-04-07T11:26:05;99646.44;;;15.89;31.37
64616;BME280;51027;42.162;24.754;2023-04-07T11:28:31;99629.94;;;15.98;31.37
64616;BME280;51027;42.162;24.754;2023-04-07T11:30:57;99638.41;;;15.76;32.30
64616;BME280;51027;42.162;24.754;2023-04-07T11:33:29;99630.22;;;15.79;32.21
64616;BME280;51027;42.162;24.754;2023-04-07T11:36:00;99627.84;;;15.30;33.04
64616;BME280;51027;42.162;24.754;2023-04-07T11:38:28;99637.25;;;15.94;32.46
64616;BME280;51027;42.162;24.754;2023-04-07T11:40:55;99629.63;;;16.31;31.42
64616;BME280;51027;42.162;24.754;2023-04-07T11:43:22;99626.00;;;16.32;31.94
64616;BME280;51027;42.162;24.754;2023-04-07T11:48:36;99621.69;;;15.88;32.06
64616;BME280;51027;42.162;24.754;2023-04-07T11:51:02;99611.28;;;15.26;32.88
64616;BME280;51027;42.162;24.754;2023-04-07T11:53:33;99631.88;;;15.51;32.82
64616;BME280;51027;42.162;24.754;2023-04-07T11:56:03;99608.41;;;14.06;33.28
64616;BME280;51027;42.162;24.754;2023-04-07T11:58:30;99620.63;;;14.88;33.48
64616;BME280;51027;42.162;24.754;2023-04-07T12:00:59;99622.81;;;15.70;32.57
64616;BME280;51027;42.162;24.754;2023-04-07T12:03:30;99620.88;;;15.43;32.96
64616;BME280;51027;42.162;24.754;2023-04-07T12:05:55;99630.16;;;15.50;32.96
64616;BME280;51027;42.162;24.754;2023-04-07T12:08:38;99625.88;;;15.64;32.16
64616;BME280;51027;42.162;24.754;2023-04-07T12:11:04;99616.31;;;15.75;32.42
64616;BME280;51027;42.162;24.754;2023-04-07T12:13:30;99619.63;;;15.65;32.40
64616;BME280;51027;42.162;24.754;2023-04-07T12:15:58;99608.19;;;16.20;32.08
64616;BME280;51027;42.162;24.754;2023-04-07T12:18:23;99621.91;;;14.81;33.25
64616;BME280;51027;42.162;24.754;2023-04-07T12:20:49;99618.84;;;16.05;31.98
64616;BME280;51027;42.162;24.754;2023-04-07T12:23:15;99621.63;;;16.86;31.38
64616;BME280;51027;42.162;24.754;2023-04-07T12:25:40;99628.94;;;16.41;31.36
64616;BME280;51027;42.162;24.754;2023-04-07T12:28:06;99602.75;;;16.35;31.90
64616;BME280;51027;42.162;24.754;2023-04-07T12:30:31;99616.84;;;17.04;30.80
64616;BME280;51027;42.162;24.754;2023-04-07T12:32:57;99612.38;;;17.05;31.37
64616;BME280;51027;42.162;24.754;2023-04-07T12:35:22;99607.00;;;17.19;30.52
64616;BME280;51027;42.162;24.754;2023-04-07T12:37:48;99604.94;;;16.97;31.35
64616;BME280;51027;42.162;24.754;2023-04-07T12:40:13;99609.34;;;16.01;32.66
64616;BME280;51027;42.162;24.754;2023-04-07T12:42:40;99610.44;;;16.40;32.16
64616;BME280;51027;42.162;24.754;2023-04-07T12:45:06;99610.31;;;16.41;31.74
64616;BME280;51027;42.162;24.754;2023-04-07T12:47:32;99602.56;;;16.38;32.26
64616;BME280;51027;42.162;24.754;2023-04-07T12:49:58;99591.97;;;16.51;31.97
64616;BME280;51027;42.162;24.754;2023-04-07T12:52:23;99585.84;;;16.78;31.96
64616;BME280;51027;42.162;24.754;2023-04-07T12:54:49;99598.84;;;16.95;32.47
64616;BME280;51027;42.162;24.754;2023-04-07T12:57:15;99604.00;;;16.30;33.05
64616;BME280;51027;42.162;24.754;2023-04-07T12:59:40;99579.06;;;16.99;33.15
64616;BME280;51027;42.162;24.754;2023-04-07T13:02:07;99587.34;;;16.40;32.56
64616;BME280;51027;42.162;24.754;2023-04-07T13:04:32;99607.19;;;17.16;32.36
64616;BME280;51027;42.162;24.754;2023-04-07T13:06:59;99604.66;;;16.60;33.69
64616;BME280;51027;42.162;24.754;2023-04-07T13:09:27;99606.38;;;16.61;33.46
64616;BME280;51027;42.162;24.754;2023-04-07T13:11:52;99591.06;;;16.79;33.51
64616;BME280;51027;42.162;24.754;2023-04-07T13:14:17;99602.22;;;16.84;33.26
64616;BME280;51027;42.162;24.754;2023-04-07T13:16:43;99581.66;;;16.32;33.50